createdAt,value
2023-04-30T00:00:39.239Z,84.50
2023-04-30T00:03:08.858Z,84.70
2023-04-30T00:05:37.444Z,84.50
2023-04-30T00:08:06.064Z,84.70
2023-04-30T00:10:34.430Z,84.60
2023-04-30T00:13:02.783Z,84.30
2023-04-30T00:15:32.497Z,84.60
2023-04-30T00:18:00.836Z,84.40
2023-04-30T00:20:29.290Z,84.30
2023-04-30T00:22:57.640Z,84.20
2023-04-30T00:25:26.028Z,84.50
2023-04-30T00:27:54.414Z,84.40
2023-04-30T00:30:22.799Z,84.50
2023-04-30T00:32:52.584Z,84.40
2023-04-30T00:35:20.953Z,84.30
2023-04-30T00:37:49.449Z,84.30
2023-04-30T00:40:17.967Z,84.40
2023-04-30T00:42:47.358Z,84.20
2023-04-30T00:45:17.990Z,84.50
2023-04-30T00:47:46.538Z,84.70
2023-04-30T00:50:17.294Z,84.40
2023-04-30T00:52:45.846Z,84.30
2023-04-30T00:55:15.049Z,84.40
2023-04-30T00:57:43.396Z,84.20
2023-04-30T01:00:14.112Z,84.20
2023-04-30T01:02:42.614Z,84.30
2023-04-30T01:05:11.479Z,84.20
2023-04-30T01:07:45.252Z,84.20
2023-04-30T01:10:15.225Z,85.60
2023-04-30T01:12:51.351Z,84.30
2023-04-30T01:15:26.026Z,84.20
2023-04-30T01:18:00.375Z,84.30
2023-04-30T01:20:30.973Z,84.30
2023-04-30T01:23:19.117Z,84.10
2023-04-30T01:26:02.324Z,84.10
2023-04-30T01:28:33.713Z,84.30
2023-04-30T01:31:02.368Z,84.20
2023-04-30T01:33:30.784Z,84.10
2023-04-30T01:36:26.036Z,84.10
2023-04-30T01:39:16.810Z,84.20
2023-04-30T01:41:55.937Z,84.00
2023-04-30T01:44:38.714Z,84.00
2023-04-30T01:47:18.853Z,84.10
2023-04-30T01:49:57.029Z,84.10
2023-04-30T01:52:33.355Z,84.20
2023-04-30T01:55:06.569Z,84.10
2023-04-30T01:57:38.579Z,84.00
2023-04-30T02:00:12.158Z,84.10
2023-04-30T02:02:43.722Z,83.90
2023-04-30T02:05:12.155Z,83.80
2023-04-30T02:07:42.632Z,83.90
2023-04-30T02:10:12.993Z,84.10
2023-04-30T02:12:41.886Z,83.90
2023-04-30T02:15:12.692Z,83.80
2023-04-30T02:17:42.821Z,83.80
2023-04-30T02:20:11.785Z,83.70
2023-04-30T02:22:40.660Z,84.00
2023-04-30T02:25:11.943Z,83.90
2023-04-30T02:27:40.306Z,83.80
2023-04-30T02:30:09.572Z,85.00
2023-04-30T02:32:39.428Z,83.90
2023-04-30T02:35:08.245Z,83.80
2023-04-30T02:37:36.597Z,84.00
2023-04-30T02:40:06.623Z,83.80
2023-04-30T02:42:34.944Z,84.00
2023-04-30T02:45:05.630Z,83.90
2023-04-30T02:47:33.994Z,84.00
2023-04-30T02:50:04.082Z,83.90
2023-04-30T02:52:32.886Z,83.80
2023-04-30T02:55:01.496Z,83.90
2023-04-30T02:57:29.859Z,83.80
2023-04-30T02:59:58.172Z,83.80
2023-04-30T03:02:27.081Z,83.90
2023-04-30T03:04:55.521Z,83.80
2023-04-30T03:07:25.265Z,83.70
2023-04-30T03:09:54.044Z,83.60
2023-04-30T03:12:22.774Z,83.70
2023-04-30T03:14:52.332Z,83.80
2023-04-30T03:17:20.672Z,83.70
2023-04-30T03:19:49.113Z,83.60
2023-04-30T03:22:19.411Z,83.50
2023-04-30T03:24:49.309Z,83.40
2023-04-30T03:27:17.958Z,83.40
2023-04-30T03:29:46.568Z,83.50
2023-04-30T03:32:14.935Z,83.50
2023-04-30T03:34:43.229Z,83.50
2023-04-30T03:37:11.589Z,83.40
2023-04-30T03:39:39.997Z,83.40
2023-04-30T03:42:09.992Z,84.70
2023-04-30T03:44:39.092Z,83.40
2023-04-30T03:47:08.265Z,83.40
2023-04-30T03:49:37.280Z,83.30
2023-04-30T03:52:06.468Z,83.30
2023-04-30T03:54:35.025Z,83.60
2023-04-30T03:57:04.696Z,83.60
2023-04-30T03:59:34.484Z,83.70
2023-04-30T04:02:03.282Z,83.20
2023-04-30T04:04:32.361Z,83.60
2023-04-30T04:07:01.443Z,83.50
2023-04-30T04:09:30.220Z,83.30
2023-04-30T04:11:59.150Z,83.40
2023-04-30T04:14:27.573Z,83.30
2023-04-30T04:17:00.005Z,83.10
2023-04-30T04:19:29.162Z,83.30
2023-04-30T04:22:00.097Z,83.50
2023-04-30T04:24:28.440Z,83.30
2023-04-30T04:26:57.013Z,83.40
2023-04-30T04:29:25.283Z,83.50
2023-04-30T04:31:55.524Z,83.90
2023-04-30T04:34:25.474Z,83.90
2023-04-30T04:36:54.128Z,84.10
2023-04-30T04:39:22.956Z,84.10
2023-04-30T04:41:51.568Z,84.00
2023-04-30T04:44:20.407Z,83.40
2023-04-30T04:46:54.028Z,83.40
2023-04-30T04:49:23.978Z,83.60
2023-04-30T04:51:53.548Z,83.20
2023-04-30T04:54:22.373Z,83.30
2023-04-30T04:56:51.728Z,83.40
2023-04-30T04:59:20.320Z,83.20
2023-04-30T05:01:50.426Z,83.20
2023-04-30T05:04:18.916Z,83.20
2023-04-30T05:06:48.988Z,83.20
2023-04-30T05:09:18.540Z,83.50
2023-04-30T05:11:49.188Z,83.60
2023-04-30T05:14:17.940Z,83.50
2023-04-30T05:16:46.965Z,83.40
2023-04-30T05:19:15.492Z,83.60
2023-04-30T05:21:43.912Z,83.50
2023-04-30T05:24:14.105Z,83.40
2023-04-30T05:26:42.488Z,83.50
2023-04-30T05:29:12.148Z,83.70
2023-04-30T05:31:40.758Z,83.50
2023-04-30T05:34:09.131Z,83.60
2023-04-30T05:36:37.483Z,83.70
2023-04-30T05:39:05.888Z,83.50
2023-04-30T05:41:35.556Z,83.50
2023-04-30T05:44:05.155Z,83.50
2023-04-30T05:46:35.295Z,83.60
2023-04-30T05:49:03.878Z,83.80
2023-04-30T05:51:32.715Z,83.60
2023-04-30T05:54:01.614Z,83.50
2023-04-30T05:56:30.093Z,83.50
2023-04-30T05:59:00.291Z,83.50
2023-04-30T06:01:29.251Z,83.50
2023-04-30T06:03:58.705Z,83.40
2023-04-30T06:06:28.012Z,83.60
2023-04-30T06:08:56.986Z,83.50
2023-04-30T06:11:26.430Z,83.60
2023-04-30T06:13:55.982Z,83.70
2023-04-30T06:16:26.117Z,83.60
2023-04-30T06:18:54.593Z,83.70
2023-04-30T06:21:25.964Z,83.40
2023-04-30T06:23:54.510Z,83.40
2023-04-30T06:26:23.202Z,83.40
2023-04-30T06:28:51.690Z,83.40
2023-04-30T06:31:20.192Z,83.10
2023-04-30T06:33:50.567Z,83.30
2023-04-30T06:36:19.639Z,84.50
2023-04-30T06:38:48.291Z,83.30
2023-04-30T06:41:17.172Z,83.10
2023-04-30T06:43:45.566Z,83.20
2023-04-30T06:46:15.250Z,83.10
2023-04-30T06:48:43.796Z,82.80
2023-04-30T06:51:13.532Z,83.00
2023-04-30T06:53:42.547Z,83.10
2023-04-30T06:56:10.964Z,83.10
2023-04-30T06:58:39.599Z,83.20
2023-04-30T07:01:08.173Z,83.30
2023-04-30T07:03:37.755Z,83.30
2023-04-30T07:06:06.743Z,83.20
2023-04-30T07:08:36.680Z,83.20
2023-04-30T07:11:05.047Z,83.10
2023-04-30T07:13:34.240Z,83.10
2023-04-30T07:16:02.672Z,83.10
2023-04-30T07:18:31.669Z,83.20
2023-04-30T07:21:00.001Z,83.30
2023-04-30T07:23:30.549Z,83.20
2023-04-30T07:26:00.905Z,83.20
2023-04-30T07:28:31.057Z,83.30
2023-04-30T07:31:00.355Z,83.10
2023-04-30T07:33:29.091Z,83.10
2023-04-30T07:35:58.528Z,83.10
2023-04-30T07:38:27.252Z,82.90
2023-04-30T07:40:55.812Z,82.80
2023-04-30T07:43:26.091Z,83.00
2023-04-30T07:45:55.056Z,81.50
2023-04-30T07:48:23.460Z,81.60
2023-04-30T07:50:52.926Z,81.60
2023-04-30T07:53:21.533Z,81.90
2023-04-30T07:55:49.937Z,82.10
2023-04-30T07:58:18.310Z,82.10
2023-04-30T08:00:48.663Z,82.30
2023-04-30T08:03:17.316Z,83.10
2023-04-30T08:05:46.306Z,82.50
2023-04-30T08:08:14.810Z,82.30
2023-04-30T08:10:43.216Z,82.30
2023-04-30T08:13:11.832Z,82.40
2023-04-30T08:15:40.458Z,82.50
2023-04-30T08:18:11.171Z,82.50
2023-04-30T08:20:39.685Z,82.50
2023-04-30T08:23:08.020Z,82.60
2023-04-30T08:25:37.039Z,82.60
2023-04-30T08:28:05.696Z,82.60
2023-04-30T08:30:33.980Z,82.60
2023-04-30T08:33:02.587Z,82.60
2023-04-30T08:35:32.369Z,82.60
2023-04-30T08:38:00.650Z,82.60
2023-04-30T08:40:49.282Z,82.60
2023-04-30T08:43:20.141Z,82.60
2023-04-30T08:45:49.990Z,82.60
2023-04-30T08:48:20.194Z,82.60
2023-04-30T08:50:50.076Z,82.60
2023-04-30T08:53:21.605Z,82.60
2023-04-30T08:55:50.000Z,82.60
2023-04-30T08:58:18.327Z,82.70
2023-04-30T09:00:46.697Z,82.70
2023-04-30T09:03:15.350Z,82.60
2023-04-30T09:05:43.889Z,82.60
2023-04-30T09:08:19.374Z,82.60
2023-04-30T09:10:47.774Z,82.90
2023-04-30T09:13:16.231Z,82.50
2023-04-30T09:15:46.103Z,82.60
2023-04-30T09:18:18.346Z,82.20
2023-04-30T09:20:58.630Z,81.40
2023-04-30T09:23:28.467Z,80.40
2023-04-30T09:25:57.730Z,79.80
2023-04-30T09:28:28.822Z,79.40
2023-04-30T09:30:59.235Z,78.60
2023-04-30T09:33:27.803Z,79.20
2023-04-30T09:35:56.138Z,79.60
2023-04-30T09:38:30.127Z,79.90
2023-04-30T09:41:00.778Z,80.30
2023-04-30T09:43:29.732Z,80.70
2023-04-30T09:45:59.774Z,81.00
2023-04-30T09:48:28.821Z,81.30
2023-04-30T09:51:04.468Z,81.40
2023-04-30T09:53:38.810Z,81.50
2023-04-30T09:56:09.042Z,81.70
2023-04-30T09:58:38.827Z,81.70
2023-04-30T10:01:11.314Z,81.80
2023-04-30T10:03:42.451Z,81.90
2023-04-30T10:06:13.951Z,81.80
2023-04-30T10:08:45.498Z,81.90
2023-04-30T10:11:19.930Z,81.60
2023-04-30T10:13:52.744Z,81.70
2023-04-30T10:16:30.458Z,81.60
2023-04-30T10:19:06.505Z,81.60
2023-04-30T10:21:35.737Z,81.70
2023-04-30T10:24:06.389Z,81.60
2023-04-30T10:26:35.377Z,81.60
2023-04-30T10:29:05.166Z,81.50
2023-04-30T10:31:34.548Z,81.50
2023-04-30T10:34:12.423Z,81.50
2023-04-30T10:36:44.647Z,81.50
2023-04-30T10:39:15.077Z,81.80
2023-04-30T10:41:47.134Z,81.80
2023-04-30T10:44:16.021Z,81.80
2023-04-30T10:46:44.616Z,81.80
2023-04-30T10:49:14.535Z,81.80
2023-04-30T10:51:47.903Z,82.00
2023-04-30T10:54:23.924Z,82.00
2023-04-30T10:56:53.187Z,81.90
2023-04-30T10:59:21.949Z,81.90
2023-04-30T11:01:58.427Z,81.90
2023-04-30T11:04:27.292Z,82.00
2023-04-30T11:07:13.522Z,81.90
2023-04-30T11:09:46.078Z,81.80
2023-04-30T11:12:16.329Z,81.10
2023-04-30T11:14:46.339Z,81.50
2023-04-30T11:17:23.661Z,81.40
2023-04-30T11:19:54.611Z,81.50
2023-04-30T11:22:25.290Z,81.70
2023-04-30T11:25:05.798Z,81.90
2023-04-30T11:27:35.603Z,81.90
2023-04-30T11:30:10.701Z,82.10
2023-04-30T11:32:40.955Z,82.10
2023-04-30T11:35:10.114Z,81.80
2023-04-30T11:37:40.161Z,82.10
2023-04-30T11:40:14.948Z,82.00
2023-04-30T11:42:46.352Z,82.10
2023-04-30T11:45:17.717Z,82.00
2023-04-30T11:47:48.384Z,82.00
2023-04-30T11:50:18.359Z,82.10
2023-04-30T11:52:51.509Z,82.00
2023-04-30T11:55:22.830Z,82.00
2023-04-30T11:57:53.367Z,82.10
2023-04-30T12:00:23.199Z,82.10
2023-04-30T12:02:51.922Z,82.10
2023-04-30T12:05:22.043Z,82.00
2023-04-30T12:07:52.159Z,82.00
2023-04-30T12:10:22.643Z,82.10
2023-04-30T12:12:53.222Z,82.00
2023-04-30T12:15:26.692Z,81.50
2023-04-30T12:17:56.917Z,81.90
2023-04-30T12:20:27.432Z,82.00
2023-04-30T12:22:55.968Z,82.00
2023-04-30T12:25:26.358Z,82.10
2023-04-30T12:27:55.402Z,82.10
2023-04-30T12:30:27.021Z,82.00
2023-04-30T12:32:58.768Z,82.00
2023-04-30T12:35:31.106Z,81.60
2023-04-30T12:38:05.515Z,81.90
2023-04-30T12:40:35.722Z,81.90
2023-04-30T12:43:05.434Z,78.80
2023-04-30T12:45:47.979Z,74.40
2023-04-30T12:48:17.342Z,75.70
2023-04-30T12:50:50.408Z,74.60
2023-04-30T12:53:19.395Z,74.70
2023-04-30T12:56:09.944Z,75.10
2023-04-30T12:58:38.986Z,75.80
2023-04-30T13:01:12.021Z,76.20
2023-04-30T13:03:40.757Z,76.50
2023-04-30T13:06:10.558Z,76.80
2023-04-30T13:08:49.641Z,77.10
2023-04-30T13:11:27.895Z,77.30
2023-04-30T13:13:56.871Z,78.00
2023-04-30T13:16:26.063Z,78.10
2023-04-30T13:18:55.258Z,78.40
2023-04-30T13:21:24.943Z,78.40
2023-04-30T13:23:54.530Z,78.80
2023-04-30T13:26:24.610Z,78.70
2023-04-30T13:28:54.762Z,78.90
2023-04-30T13:31:23.339Z,78.90
2023-04-30T13:33:52.223Z,79.10
2023-04-30T13:36:20.992Z,79.30
2023-04-30T13:38:49.650Z,79.30
2023-04-30T13:41:18.088Z,79.50
2023-04-30T13:43:47.745Z,79.80
2023-04-30T13:46:17.677Z,79.70
2023-04-30T13:48:48.374Z,79.60
2023-04-30T13:51:16.718Z,79.60
2023-04-30T13:53:45.000Z,79.00
2023-04-30T13:56:15.530Z,79.30
2023-04-30T13:58:44.121Z,79.50
2023-04-30T14:01:14.026Z,79.40
2023-04-30T14:03:43.834Z,76.70
2023-04-30T14:06:12.624Z,72.40
2023-04-30T14:08:41.101Z,74.20
2023-04-30T14:11:09.509Z,72.10
2023-04-30T14:13:38.152Z,71.70
2023-04-30T14:16:07.308Z,71.30
2023-04-30T14:18:35.854Z,70.70
2023-04-30T14:21:05.696Z,69.50
2023-04-30T14:23:34.126Z,70.00
2023-04-30T14:26:02.518Z,70.30
2023-04-30T14:28:30.966Z,70.40
2023-04-30T14:30:59.949Z,70.10
2023-04-30T14:33:28.268Z,69.10
2023-04-30T14:35:56.809Z,69.10
2023-04-30T14:38:26.782Z,68.50
2023-04-30T14:40:55.600Z,68.20
2023-04-30T14:43:24.716Z,67.70
2023-04-30T14:45:54.822Z,68.00
2023-04-30T14:48:23.442Z,68.00
2023-04-30T14:50:52.247Z,67.70
2023-04-30T14:53:20.906Z,67.80
2023-04-30T14:55:51.321Z,67.50
2023-04-30T14:58:20.341Z,67.40
2023-04-30T15:00:49.436Z,67.10
2023-04-30T15:03:21.168Z,65.30
2023-04-30T15:05:50.015Z,64.90
2023-04-30T15:08:18.478Z,65.50
2023-04-30T15:10:46.868Z,66.00
2023-04-30T15:13:16.603Z,67.30
2023-04-30T15:15:47.102Z,68.40
2023-04-30T15:18:15.776Z,67.20
2023-04-30T15:20:44.144Z,67.70
2023-04-30T15:23:14.484Z,68.90
2023-04-30T15:25:47.150Z,69.40
2023-04-30T15:28:17.033Z,69.50
2023-04-30T15:30:45.552Z,70.00
2023-04-30T15:33:14.113Z,70.40
2023-04-30T15:35:42.791Z,71.10
2023-04-30T15:38:11.295Z,71.20
2023-04-30T15:40:39.659Z,71.10
2023-04-30T15:43:39.572Z,71.80
2023-04-30T15:46:13.714Z,71.90
2023-04-30T15:48:42.720Z,72.10
2023-04-30T15:51:11.727Z,72.00
2023-04-30T15:53:39.993Z,72.20
2023-04-30T15:56:08.957Z,72.60
2023-04-30T15:58:37.274Z,72.50
2023-04-30T16:01:07.347Z,72.30
2023-04-30T16:03:37.891Z,72.60
2023-04-30T16:06:06.588Z,72.80
2023-04-30T16:08:37.188Z,72.80
2023-04-30T16:11:05.719Z,72.70
2023-04-30T16:13:34.606Z,73.20
2023-04-30T16:16:03.493Z,73.20
2023-04-30T16:18:32.193Z,73.10
2023-04-30T16:21:02.059Z,72.60
2023-04-30T16:23:31.695Z,73.00
2023-04-30T16:26:00.258Z,73.00
2023-04-30T16:28:29.493Z,73.70
2023-04-30T16:31:00.872Z,73.50
2023-04-30T16:33:29.429Z,73.50
2023-04-30T16:35:58.242Z,73.30
2023-04-30T16:38:28.077Z,73.60
2023-04-30T16:40:56.739Z,73.50
2023-04-30T16:43:25.496Z,73.70
2023-04-30T16:45:54.351Z,73.90
2023-04-30T16:48:22.827Z,74.10
2023-04-30T16:50:51.482Z,74.50
2023-04-30T16:53:20.888Z,74.20
2023-04-30T16:55:51.650Z,74.40
2023-04-30T16:58:20.323Z,74.60
2023-04-30T17:00:49.756Z,74.60
2023-04-30T17:03:19.097Z,74.60
2023-04-30T17:05:47.865Z,74.70
2023-04-30T17:08:16.698Z,74.10
2023-04-30T17:10:50.639Z,73.30
2023-04-30T17:13:26.047Z,73.10
2023-04-30T17:16:01.773Z,72.90
2023-04-30T17:18:30.979Z,72.70
2023-04-30T17:21:02.591Z,72.80
2023-04-30T17:23:30.864Z,73.00
2023-04-30T17:25:59.584Z,73.30
2023-04-30T17:28:29.747Z,73.60
2023-04-30T17:30:58.524Z,73.80
2023-04-30T17:33:27.234Z,73.90
2023-04-30T17:35:56.151Z,74.10
2023-04-30T17:38:24.452Z,74.20
2023-04-30T17:40:54.319Z,74.20
2023-04-30T17:43:22.858Z,74.50
2023-04-30T17:45:53.523Z,74.50
2023-04-30T17:48:22.194Z,74.70
2023-04-30T17:50:50.761Z,74.70
2023-04-30T17:53:19.673Z,74.80
2023-04-30T17:55:48.018Z,74.70
2023-04-30T17:58:16.411Z,74.80
2023-04-30T18:00:45.005Z,75.10
2023-04-30T18:03:14.820Z,74.30
2023-04-30T18:05:43.541Z,73.60
2023-04-30T18:08:12.113Z,73.80
2023-04-30T18:10:40.484Z,74.00
2023-04-30T18:13:09.122Z,74.30
2023-04-30T18:15:37.624Z,74.60
2023-04-30T18:18:06.505Z,74.80
2023-04-30T18:20:36.390Z,74.80
2023-04-30T18:23:05.901Z,74.80
2023-04-30T18:25:37.165Z,74.80
2023-04-30T18:28:06.100Z,75.10
2023-04-30T18:30:36.151Z,75.10
2023-04-30T18:33:05.377Z,75.20
2023-04-30T18:35:35.951Z,75.30
2023-04-30T18:38:04.442Z,75.30
2023-04-30T18:40:32.834Z,75.50
2023-04-30T18:43:01.333Z,75.50
2023-04-30T18:45:29.973Z,75.60
2023-04-30T18:47:58.492Z,75.50
2023-04-30T18:50:27.598Z,75.60
2023-04-30T18:52:57.282Z,75.50
2023-04-30T18:55:25.756Z,75.50
2023-04-30T18:57:56.409Z,75.50
2023-04-30T19:00:24.835Z,75.50
2023-04-30T19:02:53.528Z,75.40
2023-04-30T19:05:23.111Z,75.50
2023-04-30T19:07:51.442Z,75.40
2023-04-30T19:10:21.171Z,75.50
2023-04-30T19:12:49.662Z,75.50
2023-04-30T19:15:18.476Z,75.50
2023-04-30T19:17:46.870Z,75.40
2023-04-30T19:20:15.318Z,76.00
2023-04-30T19:22:43.744Z,74.90
2023-04-30T19:25:12.204Z,75.00
2023-04-30T19:27:41.933Z,74.80
2023-04-30T19:30:11.161Z,74.70
2023-04-30T19:32:39.573Z,74.90
2023-04-30T19:35:08.894Z,74.70
2023-04-30T19:37:37.500Z,74.20
2023-04-30T19:40:10.459Z,74.50
2023-04-30T19:42:39.012Z,75.20
2023-04-30T19:45:10.846Z,75.00
2023-04-30T19:47:39.669Z,74.50
2023-04-30T19:50:09.697Z,74.40
2023-04-30T19:52:37.987Z,75.00
2023-04-30T19:55:06.692Z,75.00
2023-04-30T19:57:36.170Z,74.60
2023-04-30T20:00:06.217Z,74.40
2023-04-30T20:02:36.717Z,74.20
2023-04-30T20:05:07.137Z,74.20
2023-04-30T20:07:35.847Z,75.70
2023-04-30T20:10:04.242Z,74.00
2023-04-30T20:12:32.599Z,74.00
2023-04-30T20:15:01.102Z,74.40
2023-04-30T20:17:29.526Z,73.90
2023-04-30T20:19:59.180Z,74.30
2023-04-30T20:22:27.612Z,74.30
2023-04-30T20:24:56.482Z,74.20
2023-04-30T20:27:25.665Z,74.50
2023-04-30T20:29:54.226Z,74.00
2023-04-30T20:32:22.865Z,74.50
2023-04-30T20:34:52.254Z,75.20
2023-04-30T20:37:22.045Z,75.10
2023-04-30T20:39:50.420Z,75.20
2023-04-30T20:42:19.385Z,75.30
2023-04-30T20:44:48.022Z,75.30
2023-04-30T20:47:16.370Z,75.40
2023-04-30T20:49:45.223Z,75.40
2023-04-30T20:52:14.238Z,75.20
2023-04-30T20:54:44.184Z,75.10
2023-04-30T20:57:12.557Z,75.10
2023-04-30T20:59:41.494Z,75.10
2023-04-30T21:02:10.349Z,75.10
2023-04-30T21:04:38.775Z,74.60
2023-04-30T21:07:07.055Z,74.40
2023-04-30T21:09:35.836Z,74.70
2023-04-30T21:12:06.227Z,74.90
2023-04-30T21:14:35.666Z,74.90
2023-04-30T21:17:04.119Z,74.50
2023-04-30T21:19:33.736Z,74.20
2023-04-30T21:22:02.130Z,74.40
2023-04-30T21:24:32.193Z,74.70
2023-04-30T21:27:00.722Z,74.90
2023-04-30T21:29:30.503Z,74.70
2023-04-30T21:31:58.883Z,74.60
2023-04-30T21:34:27.194Z,75.00
2023-04-30T21:36:55.559Z,74.20
2023-04-30T21:39:23.847Z,74.20
2023-04-30T21:41:52.318Z,74.00
2023-04-30T21:44:20.784Z,74.20
2023-04-30T21:46:50.987Z,73.80
2023-04-30T21:49:19.380Z,74.20
2023-04-30T21:51:47.672Z,74.00
2023-04-30T21:54:19.144Z,74.30
2023-04-30T21:56:47.450Z,74.00
2023-04-30T21:59:15.828Z,74.00
2023-04-30T22:01:44.375Z,74.00
2023-04-30T22:04:14.718Z,74.20
2023-04-30T22:06:43.232Z,74.10
2023-04-30T22:09:11.670Z,74.20
2023-04-30T22:11:39.958Z,73.90
2023-04-30T22:14:08.318Z,74.30
2023-04-30T22:16:36.724Z,74.30
2023-04-30T22:19:05.094Z,74.30
2023-04-30T22:21:35.148Z,74.00
2023-04-30T22:24:03.849Z,74.20
2023-04-30T22:26:32.699Z,74.20
2023-04-30T22:29:01.068Z,74.10
2023-04-30T22:31:29.459Z,74.20
2023-04-30T22:33:57.828Z,74.10
2023-04-30T22:36:27.134Z,74.10
2023-04-30T22:38:56.909Z,74.20
2023-04-30T22:41:25.713Z,74.20
2023-04-30T22:43:54.286Z,74.10
2023-04-30T22:46:22.698Z,74.20
2023-04-30T22:48:51.121Z,74.00
2023-04-30T22:51:19.745Z,74.20
2023-04-30T22:53:48.486Z,74.00
2023-04-30T22:56:18.230Z,74.00
2023-04-30T22:58:46.676Z,74.20
2023-04-30T23:01:15.030Z,74.40
2023-04-30T23:03:43.554Z,74.40
2023-04-30T23:06:12.150Z,74.60
2023-04-30T23:08:40.524Z,74.40
2023-04-30T23:11:08.796Z,74.20
2023-04-30T23:13:38.486Z,74.10
2023-04-30T23:16:09.309Z,74.30
2023-04-30T23:18:37.773Z,74.50
2023-04-30T23:21:06.926Z,74.20
2023-04-30T23:23:35.708Z,74.40
2023-04-30T23:26:03.979Z,74.20
2023-04-30T23:28:32.417Z,74.30
2023-04-30T23:31:02.139Z,74.40
2023-04-30T23:33:30.496Z,74.20
2023-04-30T23:35:58.759Z,74.10
2023-04-30T23:38:27.045Z,74.00
2023-04-30T23:40:57.556Z,74.40
2023-04-30T23:43:25.871Z,74.10
2023-04-30T23:45:54.110Z,74.00
2023-04-30T23:48:23.830Z,74.10
2023-04-30T23:51:00.308Z,74.10
2023-04-30T23:53:29.007Z,74.10
2023-04-30T23:55:57.738Z,74.10
2023-04-30T23:58:26.079Z,74.20
